createdAt,value
2023-06-04T00:02:00.834Z,78.10
2023-06-04T00:04:27.634Z,77.32
2023-06-04T00:06:55.500Z,78.37
2023-06-04T00:09:22.458Z,79.87
2023-06-04T00:11:49.380Z,79.45
2023-06-04T00:14:19.157Z,79.76
2023-06-04T00:16:46.000Z,78.37
2023-06-04T00:19:13.001Z,78.82
2023-06-04T00:21:39.721Z,79.82
2023-06-04T00:24:06.858Z,79.68
2023-06-04T00:26:34.180Z,78.72
2023-06-04T00:29:02.145Z,79.77
2023-06-04T00:31:28.892Z,80.00
2023-06-04T00:33:55.896Z,80.75
2023-06-04T00:36:23.265Z,80.99
2023-06-04T00:38:49.967Z,80.68
2023-06-04T00:41:16.849Z,81.80
2023-06-04T00:43:47.059Z,82.05
2023-06-04T00:46:19.721Z,81.21
2023-06-04T00:48:46.529Z,80.65
2023-06-04T00:51:13.961Z,82.06
2023-06-04T00:53:41.004Z,82.16
2023-06-04T00:56:07.999Z,82.10
2023-06-04T00:58:40.201Z,82.32
2023-06-04T01:01:16.939Z,81.43
2023-06-04T01:03:59.469Z,81.86
2023-06-04T01:06:45.060Z,82.72
2023-06-04T01:09:12.367Z,82.46
2023-06-04T01:11:40.860Z,82.03
2023-06-04T01:14:10.200Z,81.96
2023-06-04T01:17:16.607Z,80.85
2023-06-04T01:20:42.143Z,82.64
2023-06-04T01:23:30.279Z,82.19
2023-06-04T01:25:58.799Z,81.95
2023-06-04T01:28:28.214Z,80.84
2023-06-04T01:30:57.860Z,82.15
2023-06-04T01:33:24.647Z,82.45
2023-06-04T01:35:51.356Z,82.36
2023-06-04T01:38:18.285Z,82.81
2023-06-04T01:40:45.411Z,82.64
2023-06-04T01:43:12.162Z,83.32
2023-06-04T01:45:38.844Z,83.22
2023-06-04T01:48:06.837Z,83.98
2023-06-04T01:50:34.095Z,84.04
2023-06-04T01:53:00.866Z,82.78
2023-06-04T01:55:29.511Z,82.91
2023-06-04T01:57:56.377Z,83.70
2023-06-04T02:00:23.883Z,84.73
2023-06-04T02:02:50.746Z,85.21
2023-06-04T02:05:17.821Z,85.12
2023-06-04T02:07:46.548Z,84.77
2023-06-04T02:10:15.421Z,84.26
2023-06-04T02:12:54.224Z,84.29
2023-06-04T02:15:21.560Z,84.11
2023-06-04T02:17:49.012Z,83.85
2023-06-04T02:20:16.379Z,83.40
2023-06-04T02:22:43.373Z,84.53
2023-06-04T02:25:13.237Z,84.82
2023-06-04T02:27:39.990Z,84.40
2023-06-04T02:30:07.430Z,84.61
2023-06-04T02:32:35.124Z,85.47
2023-06-04T02:35:01.901Z,86.17
2023-06-04T02:37:28.655Z,87.84
2023-06-04T02:39:55.597Z,87.65
2023-06-04T02:42:22.350Z,86.33
2023-06-04T02:44:49.074Z,86.00
2023-06-04T02:47:15.740Z,86.94
2023-06-04T02:49:42.497Z,89.09
2023-06-04T02:52:09.137Z,88.73
2023-06-04T02:54:35.999Z,88.09
2023-06-04T02:57:03.103Z,87.35
2023-06-04T02:59:29.873Z,86.64
2023-06-04T03:01:56.624Z,85.68
2023-06-04T03:04:23.358Z,86.64
2023-06-04T03:06:53.960Z,86.78
2023-06-04T03:09:20.906Z,87.43
2023-06-04T03:11:47.657Z,87.21
2023-06-04T03:14:14.429Z,87.34
2023-06-04T03:16:41.274Z,89.24
2023-06-04T03:19:08.146Z,88.61
2023-06-04T03:21:34.920Z,88.09
2023-06-04T03:24:01.688Z,87.67
2023-06-04T03:26:29.209Z,88.38
2023-06-04T03:28:56.024Z,89.87
2023-06-04T03:31:22.769Z,89.81
2023-06-04T03:33:49.794Z,88.82
2023-06-04T03:36:17.673Z,89.02
2023-06-04T03:38:46.959Z,88.87
2023-06-04T03:41:13.712Z,88.95
2023-06-04T03:43:40.389Z,89.27
2023-06-04T03:46:07.122Z,90.27
2023-06-04T03:48:34.060Z,89.28
2023-06-04T03:51:01.196Z,88.47
2023-06-04T03:53:27.938Z,88.37
2023-06-04T03:55:54.698Z,88.61
2023-06-04T03:58:22.716Z,88.60
2023-06-04T04:00:49.442Z,87.59
2023-06-04T04:03:16.249Z,87.36
2023-06-04T04:05:42.989Z,86.67
2023-06-04T04:08:10.366Z,87.54
2023-06-04T04:10:37.096Z,88.08
2023-06-04T04:13:03.923Z,88.16
2023-06-04T04:15:30.660Z,87.84
2023-06-04T04:17:57.455Z,87.33
2023-06-04T04:20:24.229Z,87.20
2023-06-04T04:22:51.787Z,87.83
2023-06-04T04:25:18.530Z,88.06
2023-06-04T04:27:45.525Z,87.21
2023-06-04T04:30:14.030Z,87.19
2023-06-04T04:32:50.252Z,87.39
2023-06-04T04:35:19.642Z,86.55
2023-06-04T04:37:46.533Z,86.32
2023-06-04T04:40:13.944Z,86.75
2023-06-04T04:42:40.888Z,86.36
2023-06-04T04:45:08.625Z,86.27
2023-06-04T04:47:35.363Z,86.21
2023-06-04T04:50:02.150Z,85.30
2023-06-04T04:52:28.971Z,85.09
2023-06-04T04:54:57.353Z,85.03
2023-06-04T04:57:24.752Z,84.26
2023-06-04T04:59:51.654Z,84.25
2023-06-04T05:02:18.587Z,83.53
2023-06-04T05:04:45.705Z,83.22
2023-06-04T05:07:12.551Z,83.19
2023-06-04T05:09:39.282Z,82.38
2023-06-04T05:12:06.781Z,82.30
2023-06-04T05:14:34.116Z,81.91
2023-06-04T05:17:00.840Z,81.84
2023-06-04T05:19:27.591Z,82.03
2023-06-04T05:21:54.761Z,81.33
2023-06-04T05:24:21.531Z,80.79
2023-06-04T05:26:49.638Z,80.22
2023-06-04T05:29:16.728Z,80.08
2023-06-04T05:31:43.845Z,80.17
2023-06-04T05:34:10.917Z,80.72
2023-06-04T05:36:37.773Z,79.10
2023-06-04T05:39:05.537Z,78.90
2023-06-04T05:41:32.331Z,78.10
2023-06-04T05:43:59.105Z,77.98
2023-06-04T05:46:25.966Z,76.92
2023-06-04T05:48:52.709Z,75.93
2023-06-04T05:51:19.532Z,77.29
2023-06-04T05:53:46.522Z,75.65
2023-06-04T05:56:13.425Z,74.71
2023-06-04T05:58:40.259Z,68.47
2023-06-04T06:01:07.915Z,68.69
2023-06-04T06:03:35.111Z,69.05
2023-06-04T06:06:02.495Z,65.55
2023-06-04T06:08:29.366Z,62.83
2023-06-04T06:10:57.104Z,62.28
2023-06-04T06:13:23.982Z,62.12
2023-06-04T06:15:50.996Z,63.26
2023-06-04T06:18:17.810Z,63.92
2023-06-04T06:20:44.543Z,61.88
2023-06-04T06:23:11.496Z,61.77
2023-06-04T06:25:38.242Z,63.90
2023-06-04T06:28:05.020Z,62.28
2023-06-04T06:30:31.819Z,60.96
2023-06-04T06:32:58.855Z,61.40
2023-06-04T06:35:25.592Z,59.36
2023-06-04T06:37:52.315Z,57.64
2023-06-04T06:40:19.040Z,58.38
2023-06-04T06:42:52.591Z,57.83
2023-06-04T06:45:20.480Z,59.51
2023-06-04T06:47:47.310Z,57.82
2023-06-04T06:50:14.125Z,57.72
2023-06-04T06:52:41.084Z,59.20
2023-06-04T06:55:08.384Z,55.27
2023-06-04T06:57:35.108Z,54.77
2023-06-04T07:00:02.115Z,54.01
2023-06-04T07:02:30.264Z,53.76
2023-06-04T07:04:57.164Z,54.72
2023-06-04T07:07:24.296Z,53.06
2023-06-04T07:09:51.490Z,52.06
2023-06-04T07:12:18.239Z,51.42
2023-06-04T07:14:45.040Z,51.27
2023-06-04T07:17:11.962Z,52.28
2023-06-04T07:19:38.622Z,51.83
2023-06-04T07:22:05.432Z,52.06
2023-06-04T07:24:32.223Z,51.56
2023-06-04T07:26:59.040Z,49.65
2023-06-04T07:29:25.849Z,49.61
2023-06-04T07:31:52.796Z,48.48
2023-06-04T07:34:19.657Z,49.30
2023-06-04T07:36:46.543Z,48.94
2023-06-04T07:39:13.273Z,48.48
2023-06-04T07:41:40.021Z,48.03
2023-06-04T07:44:06.856Z,48.28
2023-06-04T07:46:33.602Z,49.34
2023-06-04T07:49:00.315Z,47.76
2023-06-04T07:51:27.289Z,48.13
2023-06-04T07:53:54.041Z,47.53
2023-06-04T07:56:21.003Z,46.79
2023-06-04T07:58:48.185Z,46.86
2023-06-04T08:01:14.900Z,46.67
2023-06-04T08:03:43.172Z,46.44
2023-06-04T08:06:12.199Z,43.56
2023-06-04T08:08:39.169Z,43.43
2023-06-04T08:11:06.034Z,44.38
2023-06-04T08:13:33.110Z,46.09
2023-06-04T08:16:00.546Z,44.65
2023-06-04T08:18:27.441Z,43.53
2023-06-04T08:20:54.462Z,42.71
2023-06-04T08:23:21.240Z,41.41
2023-06-04T08:25:48.082Z,41.51
2023-06-04T08:28:17.084Z,41.45
2023-06-04T08:30:43.959Z,41.41
2023-06-04T08:33:12.313Z,41.75
2023-06-04T08:35:39.300Z,41.85
2023-06-04T08:38:06.357Z,41.39
2023-06-04T08:40:33.241Z,38.95
2023-06-04T08:43:01.711Z,37.69
2023-06-04T08:45:29.206Z,37.51
2023-06-04T08:47:56.360Z,36.30
2023-06-04T08:50:25.676Z,36.19
2023-06-04T08:52:58.087Z,36.51
2023-06-04T08:55:25.269Z,36.28
2023-06-04T08:57:54.961Z,36.76
2023-06-04T09:00:22.042Z,37.09
2023-06-04T09:02:49.229Z,36.17
2023-06-04T09:05:23.982Z,36.12
2023-06-04T09:07:54.747Z,36.44
2023-06-04T09:10:23.648Z,36.60
2023-06-04T09:12:51.698Z,35.88
2023-06-04T09:15:18.554Z,36.27
2023-06-04T09:17:45.693Z,34.72
2023-06-04T09:20:22.998Z,34.96
2023-06-04T09:22:49.838Z,35.24
2023-06-04T09:25:26.673Z,33.41
2023-06-04T09:27:56.716Z,34.21
2023-06-04T09:30:24.734Z,35.44
2023-06-04T09:32:51.874Z,34.97
2023-06-04T09:35:20.374Z,35.75
2023-06-04T09:37:58.234Z,34.63
2023-06-04T09:40:25.926Z,35.66
2023-06-04T09:42:56.561Z,34.57
2023-06-04T09:45:34.112Z,34.68
2023-06-04T09:48:02.018Z,35.45
2023-06-04T09:50:33.635Z,35.10
2023-06-04T09:53:01.189Z,35.78
2023-06-04T09:55:27.916Z,34.03
2023-06-04T09:57:54.736Z,36.04
2023-06-04T10:00:24.305Z,36.49
2023-06-04T10:03:00.068Z,35.05
2023-06-04T10:05:27.913Z,35.44
2023-06-04T10:07:56.519Z,35.73
2023-06-04T10:10:26.829Z,33.92
2023-06-04T10:13:04.667Z,35.68
2023-06-04T10:15:33.627Z,35.03
2023-06-04T10:18:00.462Z,35.18
2023-06-04T10:20:27.185Z,35.21
2023-06-04T10:22:54.647Z,34.51
2023-06-04T10:25:21.846Z,34.46
2023-06-04T10:27:48.808Z,33.80
2023-06-04T10:30:15.748Z,33.94
2023-06-04T10:32:42.687Z,35.05
2023-06-04T10:35:10.053Z,34.04
2023-06-04T10:37:36.951Z,32.66
2023-06-04T10:40:06.437Z,34.77
2023-06-04T10:42:42.545Z,32.27
2023-06-04T10:45:11.357Z,33.00
2023-06-04T10:47:42.101Z,33.25
2023-06-04T10:50:12.103Z,33.87
2023-06-04T10:52:41.130Z,31.81
2023-06-04T10:55:09.736Z,33.28
2023-06-04T10:57:37.891Z,33.35
2023-06-04T11:00:10.994Z,32.05
2023-06-04T11:02:38.744Z,32.93
2023-06-04T11:05:08.894Z,33.04
2023-06-04T11:07:49.906Z,33.15
2023-06-04T11:10:18.505Z,33.08
2023-06-04T11:12:53.348Z,30.73
2023-06-04T11:15:20.143Z,33.20
2023-06-04T11:17:54.363Z,34.39
2023-06-04T11:20:22.892Z,32.67
2023-06-04T11:22:57.454Z,33.04
2023-06-04T11:25:27.450Z,32.68
2023-06-04T11:27:55.244Z,32.17
2023-06-04T11:30:22.091Z,32.89
2023-06-04T11:32:49.818Z,31.63
2023-06-04T11:35:16.693Z,32.25
2023-06-04T11:37:43.444Z,31.74
2023-06-04T11:40:20.796Z,32.85
2023-06-04T11:42:48.919Z,33.69
2023-06-04T11:45:19.035Z,33.25
2023-06-04T11:47:48.052Z,33.75
2023-06-04T11:50:15.302Z,33.57
2023-06-04T11:52:43.037Z,32.95
2023-06-04T11:55:18.239Z,32.00
2023-06-04T11:57:46.206Z,32.37
2023-06-04T12:00:14.526Z,32.66
2023-06-04T12:02:55.023Z,32.73
2023-06-04T12:05:24.949Z,32.87
2023-06-04T12:07:52.431Z,33.51
2023-06-04T12:10:22.817Z,32.98
2023-06-04T12:12:56.033Z,32.23
2023-06-04T12:15:23.998Z,31.97
2023-06-04T12:17:52.670Z,31.30
2023-06-04T12:20:20.835Z,31.86
2023-06-04T12:25:27.459Z,31.52
2023-06-04T12:27:54.487Z,31.96
2023-06-04T12:30:21.562Z,31.66
2023-06-04T12:32:49.317Z,31.98
2023-06-04T12:35:17.416Z,30.99
2023-06-04T12:37:44.252Z,31.90
2023-06-04T12:40:11.626Z,32.00
2023-06-04T12:42:38.418Z,31.25
2023-06-04T12:45:06.265Z,32.25
2023-06-04T12:47:33.098Z,31.74
2023-06-04T12:49:59.918Z,31.03
2023-06-04T12:52:26.846Z,31.70
2023-06-04T12:54:53.582Z,32.75
2023-06-04T12:57:20.417Z,31.52
2023-06-04T12:59:47.212Z,31.28
2023-06-04T13:02:14.012Z,32.28
2023-06-04T13:04:42.933Z,32.49
2023-06-04T13:07:09.689Z,32.45
2023-06-04T13:09:36.669Z,30.08
2023-06-04T13:12:04.964Z,31.70
2023-06-04T13:14:34.354Z,31.34
2023-06-04T13:17:14.010Z,32.22
2023-06-04T13:19:48.666Z,31.68
2023-06-04T13:22:15.701Z,31.92
2023-06-04T13:24:42.881Z,31.79
2023-06-04T13:27:09.668Z,33.58
2023-06-04T13:29:36.515Z,31.94
2023-06-04T13:32:03.591Z,31.52
2023-06-04T13:34:32.287Z,31.06
2023-06-04T13:36:59.042Z,31.23
2023-06-04T13:39:25.860Z,30.96
2023-06-04T13:41:52.666Z,29.51
2023-06-04T13:44:19.547Z,30.09
2023-06-04T13:46:46.544Z,29.74
2023-06-04T13:49:13.309Z,30.02
2023-06-04T13:51:40.034Z,30.96
2023-06-04T13:54:06.795Z,30.62
2023-06-04T13:56:33.695Z,30.65
2023-06-04T13:59:00.539Z,29.99
2023-06-04T14:01:27.270Z,30.32
2023-06-04T14:03:54.776Z,31.56
2023-06-04T14:06:21.846Z,30.42
2023-06-04T14:08:48.686Z,31.34
2023-06-04T14:11:15.478Z,30.42
2023-06-04T14:13:46.371Z,30.27
2023-06-04T14:16:13.332Z,29.74
2023-06-04T14:18:40.443Z,28.51
2023-06-04T14:21:07.479Z,29.37
2023-06-04T14:23:34.455Z,30.49
2023-06-04T14:26:01.647Z,30.38
2023-06-04T14:28:28.445Z,30.88
2023-06-04T14:30:55.161Z,31.66
2023-06-04T14:33:21.878Z,31.00
2023-06-04T14:35:48.716Z,31.32
2023-06-04T14:38:16.053Z,30.67
2023-06-04T14:40:45.008Z,30.77
2023-06-04T14:43:12.810Z,31.32
2023-06-04T14:45:41.044Z,29.96
2023-06-04T14:48:15.512Z,28.69
2023-06-04T14:50:43.708Z,28.40
2023-06-04T14:53:10.902Z,29.09
2023-06-04T14:55:38.033Z,29.36
2023-06-04T14:58:05.178Z,29.54
2023-06-04T15:00:32.352Z,30.96
2023-06-04T15:02:59.600Z,30.33
2023-06-04T15:05:26.851Z,29.61
2023-06-04T15:07:53.777Z,29.39
2023-06-04T15:10:20.693Z,29.77
2023-06-04T15:12:47.354Z,29.42
2023-06-04T15:15:14.060Z,28.78
2023-06-04T15:17:40.911Z,28.89
2023-06-04T15:20:08.653Z,27.68
2023-06-04T15:22:35.577Z,27.71
2023-06-04T15:25:02.544Z,28.22
2023-06-04T15:27:29.507Z,29.18
2023-06-04T15:29:56.400Z,29.73
2023-06-04T15:32:23.104Z,30.03
2023-06-04T15:34:51.444Z,29.91
2023-06-04T15:37:18.220Z,29.90
2023-06-04T15:39:45.175Z,29.65
2023-06-04T15:42:13.335Z,28.90
2023-06-04T15:44:40.294Z,28.20
2023-06-04T15:47:07.138Z,29.21
2023-06-04T15:49:34.160Z,28.72
2023-06-04T15:52:01.280Z,29.29
2023-06-04T15:54:44.313Z,31.33
2023-06-04T15:57:12.389Z,28.39
2023-06-04T15:59:39.210Z,28.57
2023-06-04T16:02:07.252Z,28.48
2023-06-04T16:04:34.356Z,27.99
2023-06-04T16:07:01.447Z,28.72
2023-06-04T16:09:29.720Z,28.84
2023-06-04T16:11:59.429Z,28.52
2023-06-04T16:14:26.172Z,28.46
2023-06-04T16:16:53.988Z,28.26
2023-06-04T16:19:21.198Z,29.37
2023-06-04T16:21:48.035Z,28.53
2023-06-04T16:24:14.866Z,28.74
2023-06-04T16:26:41.727Z,28.67
2023-06-04T16:29:08.583Z,28.70
2023-06-04T16:31:35.531Z,28.38
2023-06-04T16:34:02.588Z,29.28
2023-06-04T16:36:29.706Z,29.14
2023-06-04T16:38:57.396Z,29.78
2023-06-04T16:41:24.211Z,29.96
2023-06-04T16:43:51.028Z,29.89
2023-06-04T16:46:17.887Z,28.88
2023-06-04T16:48:45.139Z,29.78
2023-06-04T16:51:12.260Z,28.55
2023-06-04T16:53:39.129Z,28.62
2023-06-04T16:56:06.411Z,28.67
2023-06-04T16:58:35.916Z,27.75
2023-06-04T17:01:03.772Z,28.45
2023-06-04T17:03:31.151Z,29.79
2023-06-04T17:05:58.461Z,28.67
2023-06-04T17:08:25.264Z,31.17
2023-06-04T17:10:52.156Z,30.11
2023-06-04T17:13:18.909Z,30.84
2023-06-04T17:18:12.979Z,30.37
2023-06-04T17:20:40.113Z,30.95
2023-06-04T17:23:24.178Z,30.47
2023-06-04T17:25:51.189Z,30.02
2023-06-04T17:28:18.173Z,30.53
2023-06-04T17:30:45.572Z,30.78
2023-06-04T17:33:12.491Z,31.25
2023-06-04T17:35:39.969Z,30.87
2023-06-04T17:38:06.924Z,31.05
2023-06-04T17:40:33.649Z,30.81
2023-06-04T17:43:00.419Z,31.47
2023-06-04T17:45:27.230Z,31.88
2023-06-04T17:47:54.215Z,31.90
2023-06-04T17:50:21.222Z,32.77
2023-06-04T17:52:48.482Z,32.74
2023-06-04T17:55:16.319Z,32.44
2023-06-04T17:57:43.148Z,33.13
2023-06-04T18:00:11.243Z,32.67
2023-06-04T18:02:38.440Z,33.22
2023-06-04T18:05:05.839Z,33.12
2023-06-04T18:07:32.570Z,33.52
2023-06-04T18:10:00.192Z,33.40
2023-06-04T18:12:27.359Z,33.55
2023-06-04T18:14:54.474Z,33.91
2023-06-04T18:17:21.306Z,34.06
2023-06-04T18:19:48.122Z,34.39
2023-06-04T18:22:15.176Z,35.11
2023-06-04T18:24:41.937Z,34.95
2023-06-04T18:27:08.668Z,34.45
2023-06-04T18:29:35.456Z,34.44
2023-06-04T18:32:02.253Z,35.16
2023-06-04T18:34:30.073Z,35.35
2023-06-04T18:36:58.010Z,35.63
2023-06-04T18:39:25.880Z,35.60
2023-06-04T18:41:55.563Z,36.00
2023-06-04T18:44:26.668Z,36.79
2023-06-04T18:46:53.751Z,36.61
2023-06-04T18:49:24.351Z,36.66
2023-06-04T18:51:52.067Z,36.93
2023-06-04T18:54:19.734Z,37.33
2023-06-04T18:56:46.692Z,37.59
2023-06-04T18:59:14.731Z,37.50
2023-06-04T19:01:41.982Z,38.31
2023-06-04T19:04:09.311Z,39.25
2023-06-04T19:06:36.662Z,39.62
2023-06-04T19:09:04.066Z,39.99
2023-06-04T19:11:30.942Z,40.77
2023-06-04T19:13:58.113Z,41.50
2023-06-04T19:16:25.154Z,41.89
2023-06-04T19:18:53.011Z,42.64
2023-06-04T19:21:19.856Z,43.79
2023-06-04T19:23:47.244Z,44.45
2023-06-04T19:26:15.496Z,44.72
2023-06-04T19:28:42.353Z,46.19
2023-06-04T19:31:09.171Z,46.89
2023-06-04T19:33:36.578Z,47.39
2023-06-04T19:36:03.783Z,47.44
2023-06-04T19:38:30.581Z,48.51
2023-06-04T19:40:57.376Z,47.83
2023-06-04T19:43:24.268Z,48.89
2023-06-04T19:45:51.903Z,48.95
2023-06-04T19:48:18.686Z,49.30
2023-06-04T19:50:46.146Z,49.60
2023-06-04T19:53:12.923Z,51.43
2023-06-04T19:55:39.706Z,51.46
2023-06-04T19:58:06.847Z,52.27
2023-06-04T20:00:33.684Z,53.53
2023-06-04T20:03:02.365Z,53.43
2023-06-04T20:05:29.276Z,54.60
2023-06-04T20:07:56.109Z,54.06
2023-06-04T20:10:23.024Z,53.82
2023-06-04T20:12:49.752Z,52.26
2023-06-04T20:15:16.744Z,52.79
2023-06-04T20:17:43.725Z,52.22
2023-06-04T20:20:11.126Z,52.17
2023-06-04T20:22:37.920Z,51.61
2023-06-04T20:25:05.153Z,51.85
2023-06-04T20:27:32.067Z,51.85
2023-06-04T20:29:59.085Z,52.20
2023-06-04T20:32:25.947Z,52.55
2023-06-04T20:34:52.768Z,52.48
2023-06-04T20:37:19.467Z,52.43
2023-06-04T20:39:50.168Z,51.99
2023-06-04T20:42:17.285Z,52.82
2023-06-04T20:44:44.073Z,54.58
2023-06-04T20:47:11.421Z,55.88
2023-06-04T20:49:38.103Z,57.02
2023-06-04T20:52:05.259Z,58.16
2023-06-04T20:54:34.120Z,58.40
2023-06-04T20:57:00.833Z,59.16
2023-06-04T20:59:27.744Z,59.53
2023-06-04T21:01:54.719Z,59.07
2023-06-04T21:04:21.606Z,59.39
2023-06-04T21:06:48.433Z,60.49
2023-06-04T21:09:15.519Z,61.61
2023-06-04T21:11:42.258Z,61.13
2023-06-04T21:14:09.050Z,60.54
2023-06-04T21:16:35.966Z,60.12
2023-06-04T21:19:02.847Z,60.98
2023-06-04T21:21:29.602Z,60.79
2023-06-04T21:23:57.626Z,61.67
2023-06-04T21:26:24.480Z,61.78
2023-06-04T21:28:51.209Z,61.19
2023-06-04T21:31:17.916Z,61.66
2023-06-04T21:33:44.691Z,62.02
2023-06-04T21:36:14.832Z,62.33
2023-06-04T21:38:42.436Z,62.68
2023-06-04T21:41:09.511Z,62.58
2023-06-04T21:43:36.411Z,64.36
2023-06-04T21:46:03.703Z,66.29
2023-06-04T21:48:30.483Z,67.41
2023-06-04T21:50:57.284Z,67.38
2023-06-04T21:53:24.232Z,67.73
2023-06-04T21:55:51.543Z,66.45
2023-06-04T21:58:20.915Z,65.99
2023-06-04T22:00:48.709Z,67.70
2023-06-04T22:03:15.825Z,66.06
2023-06-04T22:05:42.716Z,66.62
2023-06-04T22:08:09.732Z,66.66
2023-06-04T22:10:36.568Z,66.31
2023-06-04T22:13:03.429Z,66.27
2023-06-04T22:15:30.164Z,66.23
2023-06-04T22:18:00.581Z,66.31
2023-06-04T22:20:27.504Z,67.98
2023-06-04T22:22:54.285Z,68.40
2023-06-04T22:25:21.275Z,68.06
2023-06-04T22:27:48.008Z,68.48
2023-06-04T22:30:14.889Z,68.61
2023-06-04T22:32:41.729Z,70.62
2023-06-04T22:35:08.505Z,71.69
2023-06-04T22:37:35.281Z,71.15
2023-06-04T22:40:02.304Z,71.45
2023-06-04T22:42:29.088Z,71.97
2023-06-04T22:44:55.895Z,72.25
2023-06-04T22:47:22.645Z,72.93
2023-06-04T22:49:49.436Z,73.16
2023-06-04T22:52:16.243Z,73.20
2023-06-04T22:54:42.919Z,74.25
2023-06-04T22:57:09.583Z,73.82
2023-06-04T22:59:36.366Z,73.50
2023-06-04T23:02:03.227Z,74.07
2023-06-04T23:04:29.951Z,73.16
2023-06-04T23:06:56.867Z,72.02
2023-06-04T23:09:23.603Z,71.58
2023-06-04T23:11:51.128Z,71.80
2023-06-04T23:14:17.910Z,72.40
2023-06-04T23:16:44.853Z,71.89
2023-06-04T23:19:11.731Z,73.05
2023-06-04T23:21:38.584Z,73.00
2023-06-04T23:24:05.959Z,72.93
2023-06-04T23:26:32.677Z,73.35
2023-06-04T23:28:59.486Z,73.42
2023-06-04T23:31:26.587Z,74.04
2023-06-04T23:33:53.636Z,74.34
2023-06-04T23:36:20.306Z,73.73
2023-06-04T23:38:48.230Z,74.87
2023-06-04T23:41:15.000Z,75.41
2023-06-04T23:43:41.741Z,75.29
2023-06-04T23:46:08.567Z,76.68
2023-06-04T23:48:35.264Z,76.44
2023-06-04T23:51:01.914Z,75.35
2023-06-04T23:53:28.823Z,75.53
2023-06-04T23:55:55.836Z,77.25
2023-06-04T23:58:22.516Z,76.79
